sensor_id;sensor_type;location;lat;lon;timestamp;P1;durP1;ratioP1;P2;durP2;ratioP2
61756;SDS011;57225;61.460;24.060;2023-06-04T00:07:51;3.17;;;1.40;;
61756;SDS011;57225;61.460;24.060;2023-06-04T00:10:36;2.88;;;0.98;;
61756;SDS011;57225;61.460;24.060;2023-06-04T00:13:23;1.85;;;0.90;;
61756;SDS011;57225;61.460;24.060;2023-06-04T00:16:07;1.75;;;0.98;;
61756;SDS011;57225;61.460;24.060;2023-06-04T00:18:52;2.35;;;0.85;;
61756;SDS011;57225;61.460;24.060;2023-06-04T00:21:37;2.45;;;1.00;;
61756;SDS011;57225;61.460;24.060;2023-06-04T00:24:22;3.13;;;0.90;;
61756;SDS011;57225;61.460;24.060;2023-06-04T00:27:07;2.08;;;1.02;;
61756;SDS011;57225;61.460;24.060;2023-06-04T00:29:52;3.20;;;1.10;;
61756;SDS011;57225;61.460;24.060;2023-06-04T00:32:37;3.63;;;1.20;;
61756;SDS011;57225;61.460;24.060;2023-06-04T00:35:22;3.70;;;1.10;;
61756;SDS011;57225;61.460;24.060;2023-06-04T00:38:07;3.22;;;1.38;;
61756;SDS011;57225;61.460;24.060;2023-06-04T00:40:52;3.30;;;1.17;;
61756;SDS011;57225;61.460;24.060;2023-06-04T00:43:36;4.38;;;1.27;;
61756;SDS011;57225;61.460;24.060;2023-06-04T00:46:24;1.77;;;1.00;;
61756;SDS011;57225;61.460;24.060;2023-06-04T00:49:10;5.97;;;0.80;;
61756;SDS011;57225;61.460;24.060;2023-06-04T00:51:56;2.45;;;0.90;;
61756;SDS011;57225;61.460;24.060;2023-06-04T00:54:40;1.83;;;0.93;;
61756;SDS011;57225;61.460;24.060;2023-06-04T00:57:25;0.88;;;0.77;;
61756;SDS011;57225;61.460;24.060;2023-06-04T01:00:10;5.25;;;1.08;;
61756;SDS011;57225;61.460;24.060;2023-06-04T01:02:55;4.03;;;1.13;;
61756;SDS011;57225;61.460;24.060;2023-06-04T01:08:52;2.55;;;1.02;;
61756;SDS011;57225;61.460;24.060;2023-06-04T01:11:41;2.42;;;1.17;;
61756;SDS011;57225;61.460;24.060;2023-06-04T01:14:26;1.88;;;0.90;;
61756;SDS011;57225;61.460;24.060;2023-06-04T01:17:13;7.28;;;1.50;;
61756;SDS011;57225;61.460;24.060;2023-06-04T01:20:28;3.05;;;1.10;;
61756;SDS011;57225;61.460;24.060;2023-06-04T01:26:31;3.35;;;1.05;;
61756;SDS011;57225;61.460;24.060;2023-06-04T01:29:15;4.07;;;1.25;;
61756;SDS011;57225;61.460;24.060;2023-06-04T01:32:00;3.28;;;1.05;;
61756;SDS011;57225;61.460;24.060;2023-06-04T01:34:45;2.80;;;1.10;;
61756;SDS011;57225;61.460;24.060;2023-06-04T01:37:30;2.28;;;1.02;;
61756;SDS011;57225;61.460;24.060;2023-06-04T01:40:14;1.63;;;1.10;;
61756;SDS011;57225;61.460;24.060;2023-06-04T01:42:59;1.25;;;0.95;;
61756;SDS011;57225;61.460;24.060;2023-06-04T01:45:43;2.40;;;1.00;;
61756;SDS011;57225;61.460;24.060;2023-06-04T01:48:28;2.78;;;1.15;;
61756;SDS011;57225;61.460;24.060;2023-06-04T01:51:13;5.13;;;1.10;;
61756;SDS011;57225;61.460;24.060;2023-06-04T01:53:57;2.60;;;1.33;;
61756;SDS011;57225;61.460;24.060;2023-06-04T01:56:43;2.85;;;1.35;;
61756;SDS011;57225;61.460;24.060;2023-06-04T01:59:27;3.75;;;1.40;;
61756;SDS011;57225;61.460;24.060;2023-06-04T02:02:17;3.53;;;1.15;;
61756;SDS011;57225;61.460;24.060;2023-06-04T02:05:03;3.60;;;1.02;;
61756;SDS011;57225;61.460;24.060;2023-06-04T02:07:50;3.15;;;1.05;;
61756;SDS011;57225;61.460;24.060;2023-06-04T02:10:35;2.80;;;1.10;;
61756;SDS011;57225;61.460;24.060;2023-06-04T02:13:19;2.47;;;1.27;;
61756;SDS011;57225;61.460;24.060;2023-06-04T02:16:04;3.45;;;1.10;;
61756;SDS011;57225;61.460;24.060;2023-06-04T02:18:49;6.97;;;1.33;;
61756;SDS011;57225;61.460;24.060;2023-06-04T02:21:34;2.22;;;1.20;;
61756;SDS011;57225;61.460;24.060;2023-06-04T02:24:19;2.72;;;1.08;;
61756;SDS011;57225;61.460;24.060;2023-06-04T02:27:05;3.58;;;1.15;;
61756;SDS011;57225;61.460;24.060;2023-06-04T02:29:50;2.20;;;1.02;;
61756;SDS011;57225;61.460;24.060;2023-06-04T02:32:35;2.88;;;1.30;;
61756;SDS011;57225;61.460;24.060;2023-06-04T02:35:19;4.03;;;1.20;;
61756;SDS011;57225;61.460;24.060;2023-06-04T02:38:08;1.73;;;1.00;;
61756;SDS011;57225;61.460;24.060;2023-06-04T02:40:52;6.85;;;1.35;;
61756;SDS011;57225;61.460;24.060;2023-06-04T02:43:37;2.22;;;1.00;;
61756;SDS011;57225;61.460;24.060;2023-06-04T02:46:21;4.72;;;1.10;;
61756;SDS011;57225;61.460;24.060;2023-06-04T02:49:06;3.50;;;1.45;;
61756;SDS011;57225;61.460;24.060;2023-06-04T02:51:50;2.80;;;1.10;;
61756;SDS011;57225;61.460;24.060;2023-06-04T02:54:35;5.03;;;1.10;;
61756;SDS011;57225;61.460;24.060;2023-06-04T02:57:20;1.70;;;1.00;;
61756;SDS011;57225;61.460;24.060;2023-06-04T03:00:05;2.45;;;1.10;;
61756;SDS011;57225;61.460;24.060;2023-06-04T03:02:59;2.00;;;1.10;;
61756;SDS011;57225;61.460;24.060;2023-06-04T03:05:45;3.33;;;1.08;;
61756;SDS011;57225;61.460;24.060;2023-06-04T03:08:29;3.42;;;1.20;;
61756;SDS011;57225;61.460;24.060;2023-06-04T03:11:14;2.42;;;1.00;;
61756;SDS011;57225;61.460;24.060;2023-06-04T03:13:58;4.45;;;0.93;;
61756;SDS011;57225;61.460;24.060;2023-06-04T03:16:43;3.30;;;0.98;;
61756;SDS011;57225;61.460;24.060;2023-06-04T03:19:29;3.65;;;1.33;;
61756;SDS011;57225;61.460;24.060;2023-06-04T03:22:13;2.55;;;1.00;;
61756;SDS011;57225;61.460;24.060;2023-06-04T03:24:58;2.58;;;1.00;;
61756;SDS011;57225;61.460;24.060;2023-06-04T03:27:43;2.53;;;1.00;;
61756;SDS011;57225;61.460;24.060;2023-06-04T03:30:27;2.13;;;1.00;;
61756;SDS011;57225;61.460;24.060;2023-06-04T03:33:12;1.98;;;1.10;;
61756;SDS011;57225;61.460;24.060;2023-06-04T03:35:56;2.30;;;0.90;;
61756;SDS011;57225;61.460;24.060;2023-06-04T03:38:42;3.25;;;1.10;;
61756;SDS011;57225;61.460;24.060;2023-06-04T03:41:29;1.55;;;0.88;;
61756;SDS011;57225;61.460;24.060;2023-06-04T03:44:15;2.25;;;1.10;;
61756;SDS011;57225;61.460;24.060;2023-06-04T03:47:00;2.13;;;0.90;;
61756;SDS011;57225;61.460;24.060;2023-06-04T03:49:45;3.42;;;1.15;;
61756;SDS011;57225;61.460;24.060;2023-06-04T03:52:30;1.88;;;0.85;;
61756;SDS011;57225;61.460;24.060;2023-06-04T03:55:15;1.83;;;0.75;;
61756;SDS011;57225;61.460;24.060;2023-06-04T03:57:59;2.10;;;0.80;;
61756;SDS011;57225;61.460;24.060;2023-06-04T04:00:43;1.92;;;0.68;;
61756;SDS011;57225;61.460;24.060;2023-06-04T04:03:28;4.18;;;0.85;;
61756;SDS011;57225;61.460;24.060;2023-06-04T04:06:15;1.27;;;0.55;;
61756;SDS011;57225;61.460;24.060;2023-06-04T04:08:59;0.80;;;0.70;;
61756;SDS011;57225;61.460;24.060;2023-06-04T04:11:44;2.15;;;1.20;;
61756;SDS011;57225;61.460;24.060;2023-06-04T04:14:28;2.67;;;0.95;;
61756;SDS011;57225;61.460;24.060;2023-06-04T04:17:13;1.02;;;0.50;;
61756;SDS011;57225;61.460;24.060;2023-06-04T04:19:58;1.80;;;0.55;;
61756;SDS011;57225;61.460;24.060;2023-06-04T04:22:42;0.95;;;0.70;;
61756;SDS011;57225;61.460;24.060;2023-06-04T04:25:27;1.13;;;0.60;;
61756;SDS011;57225;61.460;24.060;2023-06-04T04:28:12;2.45;;;0.68;;
61756;SDS011;57225;61.460;24.060;2023-06-04T04:30:57;2.80;;;1.00;;
61756;SDS011;57225;61.460;24.060;2023-06-04T04:33:43;1.00;;;0.63;;
61756;SDS011;57225;61.460;24.060;2023-06-04T04:36:28;1.55;;;0.52;;
61756;SDS011;57225;61.460;24.060;2023-06-04T04:39:13;0.63;;;0.40;;
61756;SDS011;57225;61.460;24.060;2023-06-04T04:41:57;2.60;;;0.63;;
61756;SDS011;57225;61.460;24.060;2023-06-04T04:44:41;0.77;;;0.60;;
61756;SDS011;57225;61.460;24.060;2023-06-04T04:47:26;2.47;;;0.55;;
61756;SDS011;57225;61.460;24.060;2023-06-04T04:50:10;2.65;;;0.60;;
61756;SDS011;57225;61.460;24.060;2023-06-04T04:52:58;1.40;;;0.50;;
61756;SDS011;57225;61.460;24.060;2023-06-04T04:55:43;2.40;;;0.70;;
61756;SDS011;57225;61.460;24.060;2023-06-04T04:58:27;5.38;;;0.73;;
61756;SDS011;57225;61.460;24.060;2023-06-04T05:01:12;1.65;;;0.63;;
61756;SDS011;57225;61.460;24.060;2023-06-04T05:03:56;1.55;;;0.60;;
61756;SDS011;57225;61.460;24.060;2023-06-04T05:06:42;0.80;;;0.55;;
61756;SDS011;57225;61.460;24.060;2023-06-04T05:09:27;1.75;;;0.93;;
61756;SDS011;57225;61.460;24.060;2023-06-04T05:12:11;2.10;;;0.60;;
61756;SDS011;57225;61.460;24.060;2023-06-04T05:14:56;1.63;;;0.60;;
61756;SDS011;57225;61.460;24.060;2023-06-04T05:17:40;1.45;;;0.52;;
61756;SDS011;57225;61.460;24.060;2023-06-04T05:20:25;1.08;;;0.60;;
61756;SDS011;57225;61.460;24.060;2023-06-04T05:23:12;2.60;;;0.60;;
61756;SDS011;57225;61.460;24.060;2023-06-04T05:26:07;2.80;;;0.93;;
61756;SDS011;57225;61.460;24.060;2023-06-04T05:28:51;1.23;;;0.63;;
61756;SDS011;57225;61.460;24.060;2023-06-04T05:31:36;1.23;;;0.60;;
61756;SDS011;57225;61.460;24.060;2023-06-04T05:34:20;2.22;;;0.60;;
61756;SDS011;57225;61.460;24.060;2023-06-04T05:37:05;1.33;;;0.60;;
61756;SDS011;57225;61.460;24.060;2023-06-04T05:39:51;1.80;;;0.55;;
61756;SDS011;57225;61.460;24.060;2023-06-04T05:42:36;1.08;;;0.40;;
61756;SDS011;57225;61.460;24.060;2023-06-04T05:45:21;0.45;;;0.30;;
61756;SDS011;57225;61.460;24.060;2023-06-04T05:48:06;1.80;;;0.68;;
61756;SDS011;57225;61.460;24.060;2023-06-04T05:50:50;6.40;;;0.73;;
61756;SDS011;57225;61.460;24.060;2023-06-04T05:53:35;0.85;;;0.55;;
61756;SDS011;57225;61.460;24.060;2023-06-04T05:56:20;0.85;;;0.60;;
61756;SDS011;57225;61.460;24.060;2023-06-04T05:59:04;2.75;;;0.50;;
61756;SDS011;57225;61.460;24.060;2023-06-04T06:05:07;3.45;;;0.63;;
61756;SDS011;57225;61.460;24.060;2023-06-04T06:07:52;0.75;;;0.30;;
61756;SDS011;57225;61.460;24.060;2023-06-04T06:10:36;1.25;;;0.50;;
61756;SDS011;57225;61.460;24.060;2023-06-04T06:13:21;0.60;;;0.47;;
61756;SDS011;57225;61.460;24.060;2023-06-04T06:16:09;1.33;;;0.60;;
61756;SDS011;57225;61.460;24.060;2023-06-04T06:18:53;0.82;;;0.32;;
61756;SDS011;57225;61.460;24.060;2023-06-04T06:21:37;2.25;;;0.60;;
61756;SDS011;57225;61.460;24.060;2023-06-04T06:24:22;0.60;;;0.40;;
61756;SDS011;57225;61.460;24.060;2023-06-04T06:27:06;1.25;;;0.50;;
61756;SDS011;57225;61.460;24.060;2023-06-04T06:29:52;2.50;;;0.50;;
61756;SDS011;57225;61.460;24.060;2023-06-04T06:32:36;1.02;;;0.50;;
61756;SDS011;57225;61.460;24.060;2023-06-04T06:35:21;1.15;;;0.40;;
61756;SDS011;57225;61.460;24.060;2023-06-04T06:38:05;1.15;;;0.50;;
61756;SDS011;57225;61.460;24.060;2023-06-04T06:40:50;1.20;;;0.50;;
61756;SDS011;57225;61.460;24.060;2023-06-04T06:43:35;1.00;;;0.40;;
61756;SDS011;57225;61.460;24.060;2023-06-04T06:46:20;0.70;;;0.57;;
61756;SDS011;57225;61.460;24.060;2023-06-04T06:49:04;0.30;;;0.30;;
61756;SDS011;57225;61.460;24.060;2023-06-04T06:51:50;2.90;;;0.60;;
61756;SDS011;57225;61.460;24.060;2023-06-04T06:54:34;0.73;;;0.50;;
61756;SDS011;57225;61.460;24.060;2023-06-04T06:57:19;0.88;;;0.50;;
61756;SDS011;57225;61.460;24.060;2023-06-04T07:00:03;2.20;;;0.75;;
61756;SDS011;57225;61.460;24.060;2023-06-04T07:02:49;1.85;;;0.70;;
61756;SDS011;57225;61.460;24.060;2023-06-04T07:05:34;2.25;;;0.57;;
61756;SDS011;57225;61.460;24.060;2023-06-04T07:08:18;0.88;;;0.65;;
61756;SDS011;57225;61.460;24.060;2023-06-04T07:11:04;5.65;;;0.63;;
61756;SDS011;57225;61.460;24.060;2023-06-04T07:13:48;0.60;;;0.40;;
61756;SDS011;57225;61.460;24.060;2023-06-04T07:16:33;1.52;;;0.50;;
61756;SDS011;57225;61.460;24.060;2023-06-04T07:19:17;0.50;;;0.50;;
61756;SDS011;57225;61.460;24.060;2023-06-04T07:22:02;1.92;;;0.50;;
61756;SDS011;57225;61.460;24.060;2023-06-04T07:24:46;0.40;;;0.32;;
61756;SDS011;57225;61.460;24.060;2023-06-04T07:27:31;1.65;;;0.40;;
61756;SDS011;57225;61.460;24.060;2023-06-04T07:30:15;0.30;;;0.30;;
61756;SDS011;57225;61.460;24.060;2023-06-04T07:34:03;0.85;;;0.40;;
61756;SDS011;57225;61.460;24.060;2023-06-04T07:36:48;1.25;;;0.70;;
61756;SDS011;57225;61.460;24.060;2023-06-04T07:39:34;1.95;;;0.50;;
61756;SDS011;57225;61.460;24.060;2023-06-04T07:42:18;1.00;;;0.50;;
61756;SDS011;57225;61.460;24.060;2023-06-04T07:45:04;1.85;;;0.40;;
61756;SDS011;57225;61.460;24.060;2023-06-04T07:47:49;1.63;;;0.60;;
61756;SDS011;57225;61.460;24.060;2023-06-04T07:50:33;1.13;;;0.30;;
61756;SDS011;57225;61.460;24.060;2023-06-04T07:53:18;0.70;;;0.55;;
61756;SDS011;57225;61.460;24.060;2023-06-04T07:56:02;0.70;;;0.60;;
61756;SDS011;57225;61.460;24.060;2023-06-04T07:58:47;0.50;;;0.40;;
61756;SDS011;57225;61.460;24.060;2023-06-04T08:01:32;2.60;;;0.30;;
61756;SDS011;57225;61.460;24.060;2023-06-04T08:04:16;1.35;;;0.40;;
61756;SDS011;57225;61.460;24.060;2023-06-04T08:07:01;0.30;;;0.30;;
61756;SDS011;57225;61.460;24.060;2023-06-04T08:09:45;0.47;;;0.30;;
61756;SDS011;57225;61.460;24.060;2023-06-04T08:12:30;0.80;;;0.47;;
61756;SDS011;57225;61.460;24.060;2023-06-04T08:15:14;1.52;;;0.40;;
61756;SDS011;57225;61.460;24.060;2023-06-04T08:17:59;0.50;;;0.40;;
61756;SDS011;57225;61.460;24.060;2023-06-04T08:20:44;6.72;;;0.98;;
61756;SDS011;57225;61.460;24.060;2023-06-04T08:23:44;0.35;;;0.20;;
61756;SDS011;57225;61.460;24.060;2023-06-04T08:26:28;0.93;;;0.30;;
61756;SDS011;57225;61.460;24.060;2023-06-04T08:29:14;2.10;;;0.55;;
61756;SDS011;57225;61.460;24.060;2023-06-04T08:31:58;0.22;;;0.20;;
61756;SDS011;57225;61.460;24.060;2023-06-04T08:34:43;0.17;;;0.17;;
61756;SDS011;57225;61.460;24.060;2023-06-04T08:37:27;1.25;;;0.40;;
61756;SDS011;57225;61.460;24.060;2023-06-04T08:40:12;0.40;;;0.20;;
61756;SDS011;57225;61.460;24.060;2023-06-04T08:42:57;0.35;;;0.20;;
61756;SDS011;57225;61.460;24.060;2023-06-04T08:45:42;3.25;;;0.40;;
61756;SDS011;57225;61.460;24.060;2023-06-04T08:48:29;1.13;;;0.45;;
61756;SDS011;57225;61.460;24.060;2023-06-04T08:51:14;0.43;;;0.30;;
61756;SDS011;57225;61.460;24.060;2023-06-04T08:54:00;0.73;;;0.30;;
61756;SDS011;57225;61.460;24.060;2023-06-04T08:56:45;0.55;;;0.40;;
61756;SDS011;57225;61.460;24.060;2023-06-04T08:59:32;3.50;;;0.22;;
61756;SDS011;57225;61.460;24.060;2023-06-04T09:02:25;0.63;;;0.40;;
61756;SDS011;57225;61.460;24.060;2023-06-04T09:05:14;0.60;;;0.28;;
61756;SDS011;57225;61.460;24.060;2023-06-04T09:08:03;0.85;;;0.20;;
61756;SDS011;57225;61.460;24.060;2023-06-04T09:10:50;1.75;;;0.30;;
61756;SDS011;57225;61.460;24.060;2023-06-04T09:16:24;0.90;;;0.40;;
61756;SDS011;57225;61.460;24.060;2023-06-04T09:19:09;0.93;;;0.30;;
61756;SDS011;57225;61.460;24.060;2023-06-04T09:21:54;0.95;;;0.30;;
61756;SDS011;57225;61.460;24.060;2023-06-04T09:24:44;3.15;;;0.30;;
61756;SDS011;57225;61.460;24.060;2023-06-04T09:27:37;0.63;;;0.40;;
61756;SDS011;57225;61.460;24.060;2023-06-04T09:30:23;1.70;;;0.40;;
61756;SDS011;57225;61.460;24.060;2023-06-04T09:33:08;0.25;;;0.20;;
61756;SDS011;57225;61.460;24.060;2023-06-04T09:35:56;0.70;;;0.30;;
61756;SDS011;57225;61.460;24.060;2023-06-04T09:38:41;0.28;;;0.28;;
61756;SDS011;57225;61.460;24.060;2023-06-04T09:41:26;0.68;;;0.30;;
61756;SDS011;57225;61.460;24.060;2023-06-04T09:44:11;1.33;;;0.30;;
61756;SDS011;57225;61.460;24.060;2023-06-04T09:46:56;0.20;;;0.20;;
61756;SDS011;57225;61.460;24.060;2023-06-04T09:49:42;0.50;;;0.20;;
61756;SDS011;57225;61.460;24.060;2023-06-04T09:52:32;0.47;;;0.20;;
61756;SDS011;57225;61.460;24.060;2023-06-04T09:55:18;0.40;;;0.30;;
61756;SDS011;57225;61.460;24.060;2023-06-04T09:58:04;2.30;;;0.20;;
61756;SDS011;57225;61.460;24.060;2023-06-04T10:00:49;0.30;;;0.30;;
61756;SDS011;57225;61.460;24.060;2023-06-04T10:03:35;1.10;;;0.20;;
61756;SDS011;57225;61.460;24.060;2023-06-04T10:06:20;0.52;;;0.40;;
61756;SDS011;57225;61.460;24.060;2023-06-04T10:09:06;0.47;;;0.30;;
61756;SDS011;57225;61.460;24.060;2023-06-04T10:11:55;2.65;;;0.20;;
61756;SDS011;57225;61.460;24.060;2023-06-04T10:14:41;0.50;;;0.25;;
61756;SDS011;57225;61.460;24.060;2023-06-04T10:17:35;0.75;;;0.17;;
61756;SDS011;57225;61.460;24.060;2023-06-04T10:20:20;0.57;;;0.38;;
61756;SDS011;57225;61.460;24.060;2023-06-04T10:23:05;0.57;;;0.20;;
61756;SDS011;57225;61.460;24.060;2023-06-04T10:26:09;0.65;;;0.30;;
61756;SDS011;57225;61.460;24.060;2023-06-04T10:28:53;0.40;;;0.17;;
61756;SDS011;57225;61.460;24.060;2023-06-04T10:31:41;0.20;;;0.20;;
61756;SDS011;57225;61.460;24.060;2023-06-04T10:34:26;0.50;;;0.30;;
61756;SDS011;57225;61.460;24.060;2023-06-04T10:37:21;0.38;;;0.20;;
61756;SDS011;57225;61.460;24.060;2023-06-04T10:40:07;1.60;;;0.20;;
61756;SDS011;57225;61.460;24.060;2023-06-04T10:42:52;1.80;;;0.20;;
61756;SDS011;57225;61.460;24.060;2023-06-04T10:45:37;0.25;;;0.25;;
61756;SDS011;57225;61.460;24.060;2023-06-04T10:48:22;0.30;;;0.30;;
61756;SDS011;57225;61.460;24.060;2023-06-04T10:51:08;1.55;;;0.32;;
61756;SDS011;57225;61.460;24.060;2023-06-04T10:53:52;5.43;;;0.30;;
61756;SDS011;57225;61.460;24.060;2023-06-04T10:56:37;1.40;;;1.20;;
61756;SDS011;57225;61.460;24.060;2023-06-04T10:59:21;0.68;;;0.30;;
61756;SDS011;57225;61.460;24.060;2023-06-04T11:02:08;2.22;;;0.95;;
61756;SDS011;57225;61.460;24.060;2023-06-04T11:05:06;1.30;;;1.02;;
61756;SDS011;57225;61.460;24.060;2023-06-04T11:07:52;1.38;;;0.57;;
61756;SDS011;57225;61.460;24.060;2023-06-04T11:10:38;1.27;;;0.52;;
61756;SDS011;57225;61.460;24.060;2023-06-04T11:13:25;1.80;;;0.20;;
61756;SDS011;57225;61.460;24.060;2023-06-04T11:16:27;0.85;;;0.10;;
61756;SDS011;57225;61.460;24.060;2023-06-04T11:19:16;0.40;;;0.20;;
61756;SDS011;57225;61.460;24.060;2023-06-04T11:22:00;0.90;;;0.30;;
61756;SDS011;57225;61.460;24.060;2023-06-04T11:24:45;0.70;;;0.25;;
61756;SDS011;57225;61.460;24.060;2023-06-04T11:27:29;0.55;;;0.20;;
61756;SDS011;57225;61.460;24.060;2023-06-04T11:30:17;1.10;;;0.27;;
61756;SDS011;57225;61.460;24.060;2023-06-04T11:33:02;0.20;;;0.20;;
61756;SDS011;57225;61.460;24.060;2023-06-04T11:35:48;0.50;;;0.22;;
61756;SDS011;57225;61.460;24.060;2023-06-04T11:38:33;0.68;;;0.20;;
61756;SDS011;57225;61.460;24.060;2023-06-04T11:41:17;1.83;;;0.30;;
61756;SDS011;57225;61.460;24.060;2023-06-04T11:44:03;2.10;;;0.20;;
61756;SDS011;57225;61.460;24.060;2023-06-04T11:46:49;1.33;;;0.50;;
61756;SDS011;57225;61.460;24.060;2023-06-04T11:49:37;1.52;;;0.30;;
61756;SDS011;57225;61.460;24.060;2023-06-04T11:52:21;0.88;;;0.30;;
61756;SDS011;57225;61.460;24.060;2023-06-04T11:55:09;0.32;;;0.30;;
61756;SDS011;57225;61.460;24.060;2023-06-04T11:57:55;0.73;;;0.20;;
61756;SDS011;57225;61.460;24.060;2023-06-04T12:00:40;0.15;;;0.15;;
61756;SDS011;57225;61.460;24.060;2023-06-04T12:03:37;3.25;;;0.22;;
61756;SDS011;57225;61.460;24.060;2023-06-04T12:06:25;0.88;;;0.20;;
61756;SDS011;57225;61.460;24.060;2023-06-04T12:09:10;0.10;;;0.10;;
61756;SDS011;57225;61.460;24.060;2023-06-04T12:12:07;0.63;;;0.20;;
61756;SDS011;57225;61.460;24.060;2023-06-04T12:15:01;1.15;;;0.40;;
61756;SDS011;57225;61.460;24.060;2023-06-04T12:17:51;0.20;;;0.20;;
61756;SDS011;57225;61.460;24.060;2023-06-04T12:20:38;0.43;;;0.20;;
61756;SDS011;57225;61.460;24.060;2023-06-04T12:26:27;1.00;;;0.25;;
61756;SDS011;57225;61.460;24.060;2023-06-04T12:29:17;1.65;;;0.20;;
61756;SDS011;57225;61.460;24.060;2023-06-04T12:32:10;0.63;;;0.50;;
61756;SDS011;57225;61.460;24.060;2023-06-04T12:34:59;4.00;;;0.40;;
61756;SDS011;57225;61.460;24.060;2023-06-04T12:37:43;1.95;;;0.32;;
61756;SDS011;57225;61.460;24.060;2023-06-04T12:40:28;0.30;;;0.30;;
61756;SDS011;57225;61.460;24.060;2023-06-04T12:43:12;1.52;;;0.38;;
61756;SDS011;57225;61.460;24.060;2023-06-04T12:45:57;0.43;;;0.25;;
61756;SDS011;57225;61.460;24.060;2023-06-04T12:48:41;1.10;;;0.50;;
61756;SDS011;57225;61.460;24.060;2023-06-04T12:51:26;1.15;;;0.47;;
61756;SDS011;57225;61.460;24.060;2023-06-04T12:54:10;2.05;;;0.30;;
61756;SDS011;57225;61.460;24.060;2023-06-04T12:56:56;0.73;;;0.30;;
61756;SDS011;57225;61.460;24.060;2023-06-04T12:59:41;0.35;;;0.28;;
61756;SDS011;57225;61.460;24.060;2023-06-04T13:02:25;1.42;;;0.30;;
61756;SDS011;57225;61.460;24.060;2023-06-04T13:05:10;0.82;;;0.50;;
61756;SDS011;57225;61.460;24.060;2023-06-04T13:07:54;0.30;;;0.20;;
61756;SDS011;57225;61.460;24.060;2023-06-04T13:10:40;2.80;;;0.40;;
61756;SDS011;57225;61.460;24.060;2023-06-04T13:13:25;2.67;;;0.47;;
61756;SDS011;57225;61.460;24.060;2023-06-04T13:16:09;0.57;;;0.30;;
61756;SDS011;57225;61.460;24.060;2023-06-04T13:18:54;0.63;;;0.38;;
61756;SDS011;57225;61.460;24.060;2023-06-04T13:21:39;1.50;;;0.35;;
61756;SDS011;57225;61.460;24.060;2023-06-04T13:24:23;0.35;;;0.30;;
61756;SDS011;57225;61.460;24.060;2023-06-04T13:27:09;1.10;;;0.35;;
61756;SDS011;57225;61.460;24.060;2023-06-04T13:29:53;0.28;;;0.22;;
61756;SDS011;57225;61.460;24.060;2023-06-04T13:32:38;0.35;;;0.30;;
61756;SDS011;57225;61.460;24.060;2023-06-04T13:35:22;0.63;;;0.38;;
61756;SDS011;57225;61.460;24.060;2023-06-04T13:38:08;0.50;;;0.28;;
61756;SDS011;57225;61.460;24.060;2023-06-04T13:40:54;4.55;;;0.20;;
61756;SDS011;57225;61.460;24.060;2023-06-04T13:43:38;2.92;;;0.20;;
61756;SDS011;57225;61.460;24.060;2023-06-04T13:46:23;0.73;;;0.38;;
61756;SDS011;57225;61.460;24.060;2023-06-04T13:49:07;1.77;;;0.20;;
61756;SDS011;57225;61.460;24.060;2023-06-04T13:51:52;1.15;;;0.20;;
61756;SDS011;57225;61.460;24.060;2023-06-04T13:54:36;1.17;;;0.40;;
61756;SDS011;57225;61.460;24.060;2023-06-04T13:57:21;0.82;;;0.32;;
61756;SDS011;57225;61.460;24.060;2023-06-04T14:00:06;1.35;;;0.52;;
61756;SDS011;57225;61.460;24.060;2023-06-04T14:02:51;1.17;;;0.30;;
61756;SDS011;57225;61.460;24.060;2023-06-04T14:05:35;0.70;;;0.32;;
61756;SDS011;57225;61.460;24.060;2023-06-04T14:08:20;1.15;;;0.28;;
61756;SDS011;57225;61.460;24.060;2023-06-04T14:11:04;1.08;;;0.20;;
61756;SDS011;57225;61.460;24.060;2023-06-04T14:13:49;0.93;;;0.30;;
61756;SDS011;57225;61.460;24.060;2023-06-04T14:16:33;0.68;;;0.40;;
61756;SDS011;57225;61.460;24.060;2023-06-04T14:19:18;1.60;;;0.30;;
61756;SDS011;57225;61.460;24.060;2023-06-04T14:22:23;0.40;;;0.20;;
61756;SDS011;57225;61.460;24.060;2023-06-04T14:25:07;2.85;;;0.28;;
61756;SDS011;57225;61.460;24.060;2023-06-04T14:27:52;1.17;;;0.20;;
61756;SDS011;57225;61.460;24.060;2023-06-04T14:30:36;0.93;;;0.25;;
61756;SDS011;57225;61.460;24.060;2023-06-04T14:33:21;2.42;;;0.40;;
61756;SDS011;57225;61.460;24.060;2023-06-04T14:36:05;0.57;;;0.40;;
61756;SDS011;57225;61.460;24.060;2023-06-04T14:38:51;3.83;;;0.32;;
61756;SDS011;57225;61.460;24.060;2023-06-04T14:41:35;1.00;;;0.40;;
61756;SDS011;57225;61.460;24.060;2023-06-04T14:44:20;0.45;;;0.40;;
61756;SDS011;57225;61.460;24.060;2023-06-04T14:47:05;0.65;;;0.47;;
61756;SDS011;57225;61.460;24.060;2023-06-04T14:49:50;1.10;;;0.70;;
61756;SDS011;57225;61.460;24.060;2023-06-04T14:52:34;1.05;;;0.50;;
61756;SDS011;57225;61.460;24.060;2023-06-04T14:55:19;1.75;;;1.05;;
61756;SDS011;57225;61.460;24.060;2023-06-04T14:58:03;0.52;;;0.43;;
61756;SDS011;57225;61.460;24.060;2023-06-04T15:00:48;0.52;;;0.52;;
61756;SDS011;57225;61.460;24.060;2023-06-04T15:03:33;2.10;;;0.40;;
61756;SDS011;57225;61.460;24.060;2023-06-04T15:09:05;1.52;;;0.22;;
61756;SDS011;57225;61.460;24.060;2023-06-04T15:11:50;0.60;;;0.40;;
61756;SDS011;57225;61.460;24.060;2023-06-04T15:14:34;3.88;;;0.60;;
61756;SDS011;57225;61.460;24.060;2023-06-04T15:17:19;2.20;;;0.25;;
61756;SDS011;57225;61.460;24.060;2023-06-04T15:20:03;0.47;;;0.30;;
61756;SDS011;57225;61.460;24.060;2023-06-04T15:22:48;0.77;;;0.28;;
61756;SDS011;57225;61.460;24.060;2023-06-04T15:25:34;1.00;;;0.32;;
61756;SDS011;57225;61.460;24.060;2023-06-04T15:28:18;1.20;;;0.20;;
61756;SDS011;57225;61.460;24.060;2023-06-04T15:31:04;0.80;;;0.60;;
61756;SDS011;57225;61.460;24.060;2023-06-04T15:33:49;1.30;;;0.30;;
61756;SDS011;57225;61.460;24.060;2023-06-04T15:36:34;0.90;;;0.40;;
61756;SDS011;57225;61.460;24.060;2023-06-04T15:39:21;0.98;;;0.40;;
61756;SDS011;57225;61.460;24.060;2023-06-04T15:42:05;1.17;;;0.60;;
61756;SDS011;57225;61.460;24.060;2023-06-04T15:44:50;1.13;;;0.40;;
61756;SDS011;57225;61.460;24.060;2023-06-04T15:47:34;1.35;;;0.70;;
61756;SDS011;57225;61.460;24.060;2023-06-04T15:50:19;0.70;;;0.40;;
61756;SDS011;57225;61.460;24.060;2023-06-04T15:53:03;1.23;;;0.35;;
61756;SDS011;57225;61.460;24.060;2023-06-04T15:55:48;1.13;;;0.32;;
61756;SDS011;57225;61.460;24.060;2023-06-04T15:58:34;1.90;;;0.30;;
61756;SDS011;57225;61.460;24.060;2023-06-04T16:01:18;0.40;;;0.30;;
61756;SDS011;57225;61.460;24.060;2023-06-04T16:04:03;0.50;;;0.35;;
61756;SDS011;57225;61.460;24.060;2023-06-04T16:06:47;0.65;;;0.40;;
61756;SDS011;57225;61.460;24.060;2023-06-04T16:09:32;3.08;;;0.43;;
61756;SDS011;57225;61.460;24.060;2023-06-04T16:12:16;0.55;;;0.40;;
61756;SDS011;57225;61.460;24.060;2023-06-04T16:15:01;0.80;;;0.30;;
61756;SDS011;57225;61.460;24.060;2023-06-04T16:17:45;0.47;;;0.35;;
61756;SDS011;57225;61.460;24.060;2023-06-04T16:20:31;2.47;;;0.30;;
61756;SDS011;57225;61.460;24.060;2023-06-04T16:26:30;0.73;;;0.40;;
61756;SDS011;57225;61.460;24.060;2023-06-04T16:29:15;2.88;;;0.30;;
61756;SDS011;57225;61.460;24.060;2023-06-04T16:31:59;0.77;;;0.57;;
61756;SDS011;57225;61.460;24.060;2023-06-04T16:34:44;2.75;;;0.60;;
61756;SDS011;57225;61.460;24.060;2023-06-04T16:37:29;1.75;;;0.70;;
61756;SDS011;57225;61.460;24.060;2023-06-04T16:40:13;0.70;;;0.30;;
61756;SDS011;57225;61.460;24.060;2023-06-04T16:42:58;0.30;;;0.30;;
61756;SDS011;57225;61.460;24.060;2023-06-04T16:45:42;1.45;;;0.60;;
61756;SDS011;57225;61.460;24.060;2023-06-04T16:48:28;1.52;;;0.60;;
61756;SDS011;57225;61.460;24.060;2023-06-04T16:51:13;1.50;;;0.73;;